Airfield :
LOGIN :

Register | Disclaimer

   EN    FR    IT 

 










Legend :    VFR   Marginal VFR   IFR   Intensive IFR   Very Intensive IFR
Visi :
Ceiling :
>= 8 km
>= 3000ft
5 to 8 km
1000 to 3000 ft
1500m to 5 km
500 to 1000 ft
800 to 1500m
200 to 500 ft
< 800m
< 200 ft
Symbols :   Thunderstorms  Fog  Heavy snow  Heavy precipitations  Wind > 20 kt
SIGMETs :     Misc.  Thunderstorms  Icing  Turbulence  Mountain Waves  Volcanic Ashes







- Airport Elevation : 34 ft
- IATA code : BLK
- Download approach charts


EGNH - Blackpool

CURRENT METAR :
  • 261920Z 25016KT 9999 FEW030 13/10 Q1010

EXPIRED METARs :
  • 261850Z 25016KT 9999 FEW033 14/10 Q1010
  • 261820Z 25016KT 9999 FEW030 14/10 Q1010
  • 261750Z 25017KT 9999 FEW024 14/10 Q1010
  • 261720Z 25015KT 9999 FEW020 15/11 Q1010
  • 261650Z 26017KT 9999 FEW021 SCT048 14/10 Q1010

Expired Forecast.
ATIS : +44 1253 343 434 (x8315)
No reported NOTAMs for that airfield.
1 SIGMET reported for the London FIR (EGTT) :
 
Severe mountain waves
EGTT SIGMET 02 VALID 261900/262300 EGRR
EGTT LONDON FIR SEV MTW FCST N OF LINE N5350 W00530 - N5306 E00322 FL030/150 STNR NC=



MET'MAP, your aeronautical weather chart ! - Copyright ORBIFLY December 2007 - Disclaimer

ORBIFLY MET'MAP TEAM :

Programming & Development : Alexandra Zaïnal
Concept & Development : Baudouin d'Aumeries
Co-Development & Prog : Marc-Olivier Méhu
Technical & hardware support : Manuel Goepfert

Contact : metmap@orbifly.com




SOURCES & CREDITS :

   NOAA